createdAt,value
2019-04-06T00:02:10.310Z,14.30
2019-04-06T00:04:42.966Z,14.24
2019-04-06T00:07:14.920Z,14.18
2019-04-06T00:09:46.966Z,14.14
2019-04-06T00:12:18.922Z,14.12
2019-04-06T00:14:51.322Z,14.08
2019-04-06T00:17:23.534Z,14.03
2019-04-06T00:19:55.561Z,13.96
2019-04-06T00:22:27.582Z,13.88
2019-04-06T00:24:59.581Z,13.82
2019-04-06T00:27:31.609Z,13.81
2019-04-06T00:30:04.774Z,13.79
2019-04-06T00:32:41.792Z,13.78
2019-04-06T00:35:14.163Z,13.78
2019-04-06T00:37:46.161Z,13.78
2019-04-06T00:40:18.262Z,13.75
2019-04-06T00:42:50.543Z,13.74
2019-04-06T00:45:24.204Z,13.69
2019-04-06T00:47:56.304Z,13.61
2019-04-06T00:50:28.352Z,13.53
2019-04-06T00:53:00.489Z,13.50
2019-04-06T00:55:32.528Z,13.47
2019-04-06T00:58:04.558Z,13.46
2019-04-06T01:00:36.580Z,13.50
2019-04-06T01:03:08.843Z,13.55
2019-04-06T01:05:41.225Z,13.57
2019-04-06T01:08:13.203Z,13.59
2019-04-06T01:10:45.158Z,13.59
2019-04-06T01:13:17.295Z,13.59
2019-04-06T01:15:49.332Z,13.58
2019-04-06T01:18:21.692Z,13.56
2019-04-06T01:20:53.684Z,13.53
2019-04-06T01:23:25.713Z,13.52
2019-04-06T01:26:06.605Z,13.52
2019-04-06T01:28:31.780Z,13.52
2019-04-06T01:31:04.081Z,13.53
2019-04-06T01:33:36.203Z,13.52
2019-04-06T01:36:08.256Z,13.48
2019-04-06T01:38:40.479Z,13.44
2019-04-06T01:41:12.487Z,13.45
2019-04-06T01:43:44.434Z,13.41
2019-04-06T01:46:16.675Z,13.36
2019-04-06T01:48:48.625Z,13.37
2019-04-06T01:51:20.613Z,13.38
2019-04-06T01:53:52.565Z,13.36
2019-04-06T01:56:25.540Z,13.37
2019-04-06T01:58:59.204Z,13.34
2019-04-06T02:01:32.838Z,13.29
2019-04-06T02:04:04.798Z,13.26
2019-04-06T02:06:36.826Z,13.25
2019-04-06T02:09:08.829Z,13.22
2019-04-06T02:11:41.152Z,13.17
2019-04-06T02:14:13.109Z,13.15
2019-04-06T02:16:45.413Z,13.14
2019-04-06T02:19:17.372Z,13.13
2019-04-06T02:21:49.369Z,13.12
2019-04-06T02:24:21.442Z,13.09
2019-04-06T02:26:53.424Z,13.05
2019-04-06T02:29:25.602Z,13.04
2019-04-06T02:32:02.149Z,13.03
2019-04-06T02:34:41.694Z,13.02
2019-04-06T02:37:24.134Z,13.01
2019-04-06T02:40:00.518Z,13.01
2019-04-06T02:42:45.912Z,13.00
2019-04-06T02:45:17.967Z,13.00
2019-04-06T02:47:49.943Z,12.98
2019-04-06T02:50:21.969Z,13.00
2019-04-06T02:52:54.066Z,12.98
2019-04-06T02:55:26.123Z,12.97
2019-04-06T02:57:58.170Z,12.96
2019-04-06T03:00:31.524Z,12.96
2019-04-06T03:03:03.726Z,12.98
2019-04-06T03:05:35.759Z,12.97
2019-04-06T03:08:07.998Z,12.96
2019-04-06T03:10:40.014Z,12.95
2019-04-06T03:13:12.211Z,12.96
2019-04-06T03:15:44.682Z,12.95
2019-04-06T03:18:16.618Z,12.95
2019-04-06T03:20:48.642Z,12.95
2019-04-06T03:23:24.039Z,12.96
2019-04-06T03:25:54.438Z,12.96
2019-04-06T03:28:26.465Z,12.94
2019-04-06T03:30:59.042Z,12.93
2019-04-06T03:33:30.948Z,12.93
2019-04-06T03:36:03.389Z,12.92
2019-04-06T03:38:35.368Z,12.92
2019-04-06T03:41:07.600Z,12.89
2019-04-06T03:43:39.603Z,12.87
2019-04-06T03:46:11.554Z,12.83
2019-04-06T03:48:43.522Z,12.81
2019-04-06T03:51:15.477Z,12.79
2019-04-06T03:53:47.626Z,12.75
2019-04-06T03:56:19.559Z,12.73
2019-04-06T03:58:52.350Z,12.70
2019-04-06T04:01:24.701Z,12.68
2019-04-06T04:03:56.662Z,12.70
2019-04-06T04:06:28.633Z,12.73
2019-04-06T04:09:00.767Z,12.76
2019-04-06T04:11:32.890Z,12.79
2019-04-06T04:14:04.914Z,12.81
2019-04-06T04:16:36.874Z,12.83
2019-04-06T04:19:09.139Z,12.84
2019-04-06T04:21:41.085Z,12.85
2019-04-06T04:24:13.030Z,12.87
2019-04-06T04:26:45.009Z,12.89
2019-04-06T04:29:16.954Z,12.89
2019-04-06T04:31:49.150Z,12.89
2019-04-06T04:34:21.172Z,12.87
2019-04-06T04:36:53.390Z,12.88
2019-04-06T04:39:25.335Z,12.89
2019-04-06T04:41:57.290Z,12.90
2019-04-06T04:44:29.365Z,12.89
2019-04-06T04:47:01.298Z,12.83
2019-04-06T04:49:33.342Z,12.77
2019-04-06T04:52:05.291Z,12.74
2019-04-06T04:54:37.281Z,12.76
2019-04-06T04:57:09.230Z,12.80
2019-04-06T04:59:41.203Z,12.81
2019-04-06T05:02:13.173Z,12.83
2019-04-06T05:04:45.121Z,12.85
2019-04-06T05:07:17.083Z,12.88
2019-04-06T05:09:49.048Z,12.93
2019-04-06T05:12:21.005Z,12.95
2019-04-06T05:15:02.741Z,12.98
2019-04-06T05:17:34.781Z,13.02
2019-04-06T05:20:09.813Z,13.07
2019-04-06T05:22:41.852Z,13.10
2019-04-06T05:25:14.307Z,13.14
2019-04-06T05:27:51.708Z,13.17
2019-04-06T05:30:20.020Z,13.20
2019-04-06T05:32:52.247Z,13.23
2019-04-06T05:35:24.191Z,13.26
2019-04-06T05:37:56.521Z,13.29
2019-04-06T05:40:28.502Z,13.31
2019-04-06T05:43:00.469Z,13.31
2019-04-06T05:45:32.642Z,13.34
2019-04-06T05:48:04.649Z,13.38
2019-04-06T05:50:36.676Z,13.40
2019-04-06T05:53:08.641Z,13.41
2019-04-06T05:55:40.641Z,13.44
2019-04-06T05:58:12.600Z,13.47
2019-04-06T06:00:44.949Z,13.50
2019-04-06T06:03:17.203Z,13.52
2019-04-06T06:05:49.161Z,13.54
2019-04-06T06:08:21.190Z,13.55
2019-04-06T06:10:53.157Z,13.55
2019-04-06T06:13:25.116Z,13.60
2019-04-06T06:15:57.090Z,13.62
2019-04-06T06:18:29.121Z,13.65
2019-04-06T06:21:01.107Z,13.66
2019-04-06T06:23:33.186Z,13.69
2019-04-06T06:26:05.198Z,13.75
2019-04-06T06:28:37.141Z,13.80
2019-04-06T06:31:09.108Z,13.85
2019-04-06T06:33:41.234Z,13.90
2019-04-06T06:36:13.198Z,13.94
2019-04-06T06:38:45.161Z,14.03
2019-04-06T06:41:17.113Z,14.11
2019-04-06T06:43:49.195Z,14.19
2019-04-06T06:46:21.172Z,14.28
2019-04-06T06:48:53.138Z,14.35
2019-04-06T06:51:25.235Z,14.43
2019-04-06T06:53:57.287Z,14.48
2019-04-06T06:56:29.239Z,14.55
2019-04-06T06:59:01.213Z,14.62
2019-04-06T07:01:33.213Z,14.69
2019-04-06T07:04:07.059Z,14.74
2019-04-06T07:06:39.038Z,14.78
2019-04-06T07:09:11.114Z,14.79
2019-04-06T07:11:43.220Z,14.78
2019-04-06T07:14:15.223Z,14.79
2019-04-06T07:16:47.279Z,14.81
2019-04-06T07:19:19.599Z,14.86
2019-04-06T07:21:52.196Z,14.91
2019-04-06T07:24:24.196Z,15.01
2019-04-06T07:26:56.136Z,15.06
2019-04-06T07:29:28.115Z,15.09
2019-04-06T07:32:00.062Z,15.12
2019-04-06T07:34:32.084Z,15.15
2019-04-06T07:37:04.037Z,15.16
2019-04-06T07:39:36.005Z,15.19
2019-04-06T07:42:08.031Z,15.21
2019-04-06T07:44:40.034Z,15.26
2019-04-06T07:47:11.985Z,15.32
2019-04-06T07:49:46.233Z,15.40
2019-04-06T07:52:17.670Z,15.48
2019-04-06T07:54:49.726Z,15.59
2019-04-06T07:57:22.190Z,15.72
2019-04-06T07:59:54.205Z,15.84
2019-04-06T08:02:26.249Z,15.91
2019-04-06T08:04:58.277Z,15.97
2019-04-06T08:07:30.294Z,16.03
2019-04-06T08:10:02.327Z,16.10
2019-04-06T08:12:34.703Z,16.15
2019-04-06T08:15:08.350Z,16.16
2019-04-06T08:17:40.377Z,16.15
2019-04-06T08:20:12.485Z,16.14
2019-04-06T08:22:44.646Z,16.10
2019-04-06T08:25:16.691Z,16.08
2019-04-06T08:27:49.205Z,16.09
2019-04-06T08:30:21.308Z,16.08
2019-04-06T08:32:53.317Z,16.05
2019-04-06T08:35:26.590Z,16.03
2019-04-06T08:37:58.842Z,16.03
2019-04-06T08:40:31.095Z,16.04
2019-04-06T08:43:03.045Z,16.04
2019-04-06T08:45:35.198Z,16.03
2019-04-06T08:48:07.230Z,15.99
2019-04-06T08:50:39.170Z,15.95
2019-04-06T08:53:13.844Z,15.93
2019-04-06T08:55:46.284Z,15.95
2019-04-06T08:58:18.294Z,16.04
2019-04-06T09:00:50.282Z,16.20
2019-04-06T09:03:22.630Z,16.39
2019-04-06T09:05:54.863Z,16.32
2019-04-06T09:08:26.797Z,16.73
2019-04-06T09:10:58.768Z,16.88
2019-04-06T09:13:31.024Z,17.04
2019-04-06T09:16:03.969Z,17.16
2019-04-06T09:18:36.124Z,17.27
2019-04-06T09:21:08.109Z,17.36
2019-04-06T09:23:40.322Z,17.49
2019-04-06T09:26:12.303Z,17.62
2019-04-06T09:28:44.332Z,17.74
2019-04-06T09:31:16.810Z,17.85
2019-04-06T09:33:49.029Z,17.96
2019-04-06T09:36:21.095Z,18.03
2019-04-06T09:38:53.095Z,18.09
2019-04-06T09:41:26.530Z,18.17
2019-04-06T09:43:58.620Z,18.23
2019-04-06T09:46:48.155Z,18.31
2019-04-06T09:49:24.793Z,18.37
2019-04-06T09:52:04.648Z,18.45
2019-04-06T09:54:38.776Z,18.52
2019-04-06T09:57:12.450Z,18.58
2019-04-06T09:59:48.236Z,18.63
2019-04-06T10:02:24.651Z,18.69
2019-04-06T10:04:58.249Z,18.75
2019-04-06T10:07:40.927Z,18.79
2019-04-06T10:10:17.543Z,18.82
2019-04-06T10:12:54.115Z,18.84
2019-04-06T10:15:27.735Z,18.85
2019-04-06T10:18:10.335Z,18.90
2019-04-06T10:20:44.200Z,18.92
2019-04-06T10:23:17.865Z,18.90
2019-04-06T10:25:51.767Z,18.94
2019-04-06T10:28:25.372Z,19.00
2019-04-06T10:31:02.304Z,19.05
2019-04-06T10:33:36.323Z,19.10
2019-04-06T10:36:09.882Z,19.18
2019-04-06T10:38:59.889Z,19.23
2019-04-06T10:41:49.928Z,19.28
2019-04-06T10:44:23.541Z,19.35
2019-04-06T10:46:57.142Z,19.43
2019-04-06T10:49:30.748Z,19.51
2019-04-06T10:52:20.239Z,19.56
2019-04-06T10:55:05.376Z,19.64
2019-04-06T10:57:38.994Z,19.71
2019-04-06T11:00:29.452Z,19.80
2019-04-06T11:03:09.114Z,19.91
2019-04-06T11:05:42.705Z,20.01
2019-04-06T11:08:16.378Z,20.06
2019-04-06T11:10:50.236Z,20.09
2019-04-06T11:13:26.614Z,20.12
2019-04-06T11:16:00.214Z,20.19
2019-04-06T11:18:45.557Z,20.26
2019-04-06T11:21:21.937Z,20.36
2019-04-06T11:23:55.527Z,20.44
2019-04-06T11:26:31.909Z,20.50
2019-04-06T11:29:08.865Z,20.53
2019-04-06T11:31:45.241Z,20.55
2019-04-06T11:34:35.303Z,20.57
2019-04-06T11:37:21.416Z,20.60
2019-04-06T11:40:11.305Z,20.59
2019-04-06T11:42:47.596Z,20.59
2019-04-06T11:45:39.453Z,20.63
2019-04-06T11:48:25.195Z,20.66
2019-04-06T11:50:58.822Z,20.63
2019-04-06T11:53:32.425Z,20.66
2019-04-06T11:56:24.160Z,20.67
2019-04-06T11:58:58.098Z,20.65
2019-04-06T12:01:31.857Z,20.65
2019-04-06T12:04:14.545Z,20.67
2019-04-06T12:06:50.827Z,20.67
2019-04-06T12:09:42.643Z,20.69
2019-04-06T12:12:33.808Z,20.73
2019-04-06T12:15:11.638Z,20.77
2019-04-06T12:17:45.545Z,20.80
2019-04-06T12:20:19.641Z,20.84
2019-04-06T12:23:09.181Z,20.88
2019-04-06T12:25:43.770Z,20.90
2019-04-06T12:28:21.528Z,20.91
2019-04-06T12:30:58.187Z,20.94
2019-04-06T12:33:37.417Z,20.96
2019-04-06T12:36:29.325Z,21.00
2019-04-06T12:39:08.703Z,21.04
2019-04-06T12:41:45.230Z,21.08
2019-04-06T12:44:21.953Z,21.10
2019-04-06T12:46:58.600Z,21.14
2019-04-06T12:49:35.279Z,21.17
2019-04-06T12:52:08.834Z,21.18
2019-04-06T12:54:58.296Z,21.15
2019-04-06T12:57:35.062Z,21.14
2019-04-06T13:00:12.690Z,21.08
2019-04-06T13:02:58.592Z,21.08
2019-04-06T13:05:35.166Z,21.11
2019-04-06T13:08:20.565Z,21.17
2019-04-06T13:10:59.966Z,21.22
2019-04-06T13:13:49.524Z,21.26
2019-04-06T13:16:25.919Z,21.21
2019-04-06T13:19:07.462Z,21.18
2019-04-06T13:21:47.063Z,21.16
2019-04-06T13:24:26.326Z,21.14
2019-04-06T13:27:08.989Z,21.14
2019-04-06T13:29:42.581Z,21.16
2019-04-06T13:32:32.174Z,21.19
2019-04-06T13:35:06.913Z,21.21
2019-04-06T13:37:40.558Z,21.23
2019-04-06T13:40:14.669Z,21.19
2019-04-06T13:42:54.223Z,21.15
2019-04-06T13:45:36.927Z,21.12
2019-04-06T13:48:26.696Z,21.11
2019-04-06T13:51:09.210Z,21.10
2019-04-06T13:53:55.424Z,21.08
2019-04-06T13:56:35.272Z,21.09
2019-04-06T13:59:17.560Z,21.09
2019-04-06T14:02:07.095Z,21.06
2019-04-06T14:04:58.847Z,21.06
2019-04-06T14:07:35.117Z,21.08
2019-04-06T14:10:15.527Z,21.06
2019-04-06T14:13:05.364Z,20.88
2019-04-06T14:15:55.159Z,21.11
2019-04-06T14:18:31.402Z,21.08
2019-04-06T14:21:07.980Z,21.04
2019-04-06T14:23:41.937Z,21.01
2019-04-06T14:26:18.592Z,20.98
2019-04-06T14:28:55.106Z,20.95
2019-04-06T14:31:34.383Z,20.95
2019-04-06T14:34:10.885Z,20.95
2019-04-06T14:36:44.466Z,20.94
2019-04-06T14:39:24.003Z,20.93
2019-04-06T14:42:15.422Z,20.89
2019-04-06T14:44:54.939Z,20.82
2019-04-06T14:47:28.525Z,20.71
2019-04-06T14:50:10.923Z,20.62
2019-04-06T14:52:56.527Z,20.56
2019-04-06T14:55:30.142Z,20.50
2019-04-06T14:58:06.657Z,20.47
2019-04-06T15:00:43.228Z,20.49
2019-04-06T15:03:17.103Z,20.50
2019-04-06T15:05:56.661Z,20.48
2019-04-06T15:08:36.163Z,20.45
2019-04-06T15:11:21.862Z,20.42
2019-04-06T15:14:01.351Z,20.45
2019-04-06T15:16:51.034Z,20.48
2019-04-06T15:19:24.817Z,20.51
2019-04-06T15:22:13.982Z,20.51
2019-04-06T15:25:05.951Z,20.47
2019-04-06T15:27:48.282Z,20.41
2019-04-06T15:30:40.879Z,20.39
2019-04-06T15:33:27.066Z,20.36
2019-04-06T15:36:03.353Z,20.39
2019-04-06T15:38:55.163Z,20.39
2019-04-06T15:41:34.604Z,20.35
2019-04-06T15:44:16.756Z,20.33
2019-04-06T15:47:06.880Z,20.31
2019-04-06T15:49:49.505Z,20.25
2019-04-06T15:52:23.103Z,20.21
2019-04-06T15:54:59.451Z,20.17
2019-04-06T15:57:33.253Z,20.13
2019-04-06T16:00:11.358Z,20.12
2019-04-06T16:03:03.265Z,20.12
2019-04-06T16:05:36.899Z,20.11
2019-04-06T16:08:13.225Z,20.09
2019-04-06T16:11:02.523Z,20.06
2019-04-06T16:13:52.540Z,20.02
2019-04-06T16:16:43.779Z,19.98
2019-04-06T16:19:23.127Z,19.93
2019-04-06T16:22:12.627Z,19.90
2019-04-06T16:24:52.334Z,19.88
2019-04-06T16:27:29.120Z,19.86
2019-04-06T16:30:14.774Z,19.62
2019-04-06T16:33:08.725Z,19.78
2019-04-06T16:35:44.688Z,19.73
2019-04-06T16:38:18.287Z,19.70
2019-04-06T16:41:10.177Z,19.65
2019-04-06T16:43:59.935Z,19.60
2019-04-06T16:46:36.949Z,19.57
2019-04-06T16:49:28.353Z,19.55
2019-04-06T16:52:01.947Z,19.51
2019-04-06T16:54:35.593Z,19.45
2019-04-06T16:57:15.266Z,19.40
2019-04-06T16:59:54.856Z,19.34
2019-04-06T17:02:44.877Z,19.28
2019-04-06T17:05:18.605Z,19.22
2019-04-06T17:07:52.390Z,19.14
2019-04-06T17:10:32.192Z,19.09
2019-04-06T17:13:06.156Z,19.02
2019-04-06T17:15:43.683Z,18.96
2019-04-06T17:18:17.560Z,18.74
2019-04-06T17:21:09.574Z,18.82
2019-04-06T17:23:58.348Z,18.74
2019-04-06T17:26:43.769Z,18.68
2019-04-06T17:29:35.812Z,18.62
2019-04-06T17:32:34.778Z,18.55
2019-04-06T17:35:13.016Z,18.47
2019-04-06T17:37:46.626Z,18.42
2019-04-06T17:40:20.518Z,18.36
2019-04-06T17:42:54.365Z,18.31
2019-04-06T17:45:40.253Z,18.26
2019-04-06T17:48:29.884Z,18.21
2019-04-06T17:51:04.669Z,18.12
2019-04-06T17:53:41.095Z,18.09
2019-04-06T17:56:30.724Z,18.04
2019-04-06T17:59:04.322Z,17.99
2019-04-06T18:01:49.829Z,17.94
2019-04-06T18:04:26.570Z,17.87
2019-04-06T18:07:03.734Z,17.83
2019-04-06T18:09:37.372Z,17.77
2019-04-06T18:12:11.438Z,17.72
2019-04-06T18:14:43.396Z,17.66
2019-04-06T18:17:15.430Z,17.61
2019-04-06T18:19:47.392Z,17.57
2019-04-06T18:22:19.374Z,17.52
2019-04-06T18:24:51.522Z,17.46
2019-04-06T18:27:23.991Z,17.41
2019-04-06T18:29:56.690Z,17.37
2019-04-06T18:32:45.288Z,17.32
2019-04-06T18:35:17.277Z,17.28
2019-04-06T18:37:51.308Z,17.23
2019-04-06T18:40:24.882Z,17.19
2019-04-06T18:42:56.797Z,17.13
2019-04-06T18:45:30.229Z,17.07
2019-04-06T18:48:02.367Z,17.00
2019-04-06T18:50:38.293Z,16.95
2019-04-06T18:53:11.351Z,16.92
2019-04-06T18:55:42.680Z,16.91
2019-04-06T18:58:14.745Z,16.89
2019-04-06T19:00:46.913Z,16.85
2019-04-06T19:03:19.041Z,16.82
2019-04-06T19:05:51.266Z,16.81
2019-04-06T19:08:23.372Z,16.77
2019-04-06T19:10:56.629Z,16.74
2019-04-06T19:13:28.728Z,16.71
2019-04-06T19:16:01.222Z,16.67
2019-04-06T19:18:33.510Z,16.60
2019-04-06T19:21:05.757Z,16.56
2019-04-06T19:23:37.852Z,16.52
2019-04-06T19:26:09.949Z,16.47
2019-04-06T19:28:42.958Z,16.44
2019-04-06T19:31:15.145Z,16.40
2019-04-06T19:33:47.656Z,16.37
2019-04-06T19:36:19.691Z,16.33
2019-04-06T19:38:51.720Z,16.30
2019-04-06T19:41:23.690Z,16.28
2019-04-06T19:43:55.724Z,16.27
2019-04-06T19:46:27.692Z,16.25
2019-04-06T19:48:59.711Z,16.22
2019-04-06T19:51:32.026Z,16.19
2019-04-06T19:54:05.754Z,16.17
2019-04-06T19:56:38.062Z,16.13
2019-04-06T19:59:13.584Z,16.11
2019-04-06T20:01:45.844Z,16.09
2019-04-06T20:04:17.996Z,16.05
2019-04-06T20:06:50.539Z,16.02
2019-04-06T20:09:22.664Z,15.98
2019-04-06T20:12:04.819Z,15.96
2019-04-06T20:14:28.464Z,15.89
2019-04-06T20:17:00.433Z,15.87
2019-04-06T20:19:32.761Z,15.83
2019-04-06T20:22:05.701Z,15.79
2019-04-06T20:24:37.688Z,15.75
2019-04-06T20:27:09.631Z,15.73
2019-04-06T20:29:41.589Z,15.69
2019-04-06T20:32:13.616Z,15.65
2019-04-06T20:34:45.652Z,15.62
2019-04-06T20:37:17.607Z,15.61
2019-04-06T20:39:49.611Z,15.59
2019-04-06T20:42:22.423Z,15.56
2019-04-06T20:44:56.432Z,15.52
2019-04-06T20:47:28.946Z,15.48
2019-04-06T20:50:01.715Z,15.45
2019-04-06T20:52:34.306Z,15.44
2019-04-06T20:55:08.030Z,15.42
2019-04-06T20:57:40.545Z,15.43
2019-04-06T21:00:13.704Z,15.41
2019-04-06T21:02:46.081Z,15.39
2019-04-06T21:05:18.469Z,15.35
2019-04-06T21:07:50.779Z,15.33
2019-04-06T21:10:22.885Z,15.30
2019-04-06T21:12:55.367Z,15.30
2019-04-06T21:15:27.432Z,15.25
2019-04-06T21:17:59.922Z,15.21
2019-04-06T21:20:31.959Z,15.21
2019-04-06T21:23:03.930Z,15.15
2019-04-06T21:25:36.467Z,15.14
2019-04-06T21:28:08.877Z,15.13
2019-04-06T21:30:41.518Z,15.11
2019-04-06T21:33:14.407Z,15.08
2019-04-06T21:35:47.357Z,15.08
2019-04-06T21:38:19.421Z,15.02
2019-04-06T21:40:51.916Z,14.93
2019-04-06T21:43:24.601Z,14.89
2019-04-06T21:45:56.718Z,14.86
2019-04-06T21:48:28.738Z,14.84
2019-04-06T21:51:01.009Z,14.84
2019-04-06T21:53:32.988Z,14.85
2019-04-06T21:56:07.590Z,14.84
2019-04-06T21:58:39.233Z,14.84
2019-04-06T22:01:14.650Z,14.83
2019-04-06T22:03:47.380Z,14.81
2019-04-06T22:06:19.430Z,14.80
2019-04-06T22:08:51.473Z,14.79
2019-04-06T22:11:23.435Z,14.79
2019-04-06T22:13:55.670Z,14.76
2019-04-06T22:16:27.952Z,14.73
2019-04-06T22:19:00.109Z,14.70
2019-04-06T22:21:32.126Z,14.63
2019-04-06T22:24:04.662Z,14.60
2019-04-06T22:26:36.673Z,14.55
2019-04-06T22:29:09.174Z,14.51
2019-04-06T22:31:41.523Z,14.49
2019-04-06T22:34:13.576Z,14.47
2019-04-06T22:36:45.548Z,14.47
2019-04-06T22:39:17.565Z,14.48
2019-04-06T22:41:49.667Z,14.50
2019-04-06T22:44:22.197Z,14.49
2019-04-06T22:46:54.238Z,14.50
2019-04-06T22:49:26.245Z,14.49
2019-04-06T22:51:58.457Z,14.48
2019-04-06T22:54:30.815Z,14.46
2019-04-06T22:57:02.796Z,14.44
2019-04-06T22:59:34.799Z,14.43
2019-04-06T23:02:06.857Z,14.41
2019-04-06T23:04:47.800Z,14.38
2019-04-06T23:07:15.813Z,14.38
2019-04-06T23:09:48.336Z,14.37
2019-04-06T23:12:21.174Z,14.37
2019-04-06T23:14:53.817Z,14.35
2019-04-06T23:17:27.349Z,14.33
2019-04-06T23:19:59.265Z,14.30
2019-04-06T23:22:31.741Z,14.28
2019-04-06T23:25:04.039Z,14.26
2019-04-06T23:27:36.409Z,14.24
2019-04-06T23:30:09.004Z,14.23
2019-04-06T23:32:41.121Z,14.20
2019-04-06T23:35:13.167Z,14.19
2019-04-06T23:37:45.106Z,14.15
2019-04-06T23:40:17.671Z,14.08
2019-04-06T23:42:49.965Z,14.01
2019-04-06T23:45:21.998Z,13.95
2019-04-06T23:47:53.950Z,13.89
2019-04-06T23:50:26.402Z,13.81
2019-04-06T23:52:58.699Z,13.67
2019-04-06T23:55:30.637Z,13.52
2019-04-06T23:58:02.878Z,13.43
